createdAt,value
2022-10-31T00:01:02.526Z,19.58
2022-10-31T00:03:29.829Z,18.33
2022-10-31T00:05:56.998Z,20.80
2022-10-31T00:08:24.968Z,27.58
2022-10-31T00:10:52.208Z,18.20
2022-10-31T00:13:19.611Z,23.67
2022-10-31T00:15:47.174Z,59.00
2022-10-31T00:18:14.505Z,32.55
2022-10-31T00:20:41.716Z,34.78
2022-10-31T00:23:09.077Z,51.35
2022-10-31T00:25:36.835Z,43.85
2022-10-31T00:28:04.139Z,33.25
2022-10-31T00:30:31.423Z,37.40
2022-10-31T00:32:58.919Z,36.00
2022-10-31T00:35:26.541Z,36.65
2022-10-31T00:37:53.914Z,23.42
2022-10-31T00:40:21.102Z,25.90
2022-10-31T00:42:48.334Z,34.83
2022-10-31T00:45:15.608Z,37.38
2022-10-31T00:47:42.840Z,29.90
2022-10-31T00:50:10.037Z,17.38
2022-10-31T00:52:37.792Z,19.63
2022-10-31T00:55:05.034Z,20.05
2022-10-31T00:57:32.477Z,19.00
2022-10-31T00:59:59.681Z,16.25
2022-10-31T01:02:28.799Z,17.75
2022-10-31T01:04:56.057Z,21.75
2022-10-31T01:07:23.417Z,31.73
2022-10-31T01:09:50.671Z,24.25
2022-10-31T01:12:17.966Z,20.40
2022-10-31T01:14:45.782Z,34.42
2022-10-31T01:17:13.187Z,16.88
2022-10-31T01:19:40.483Z,23.10
2022-10-31T01:22:07.765Z,27.10
2022-10-31T01:24:34.968Z,28.60
2022-10-31T01:27:03.002Z,19.83
2022-10-31T01:29:34.096Z,28.08
2022-10-31T01:32:01.379Z,23.20
2022-10-31T01:34:28.662Z,28.17
2022-10-31T01:36:56.121Z,32.22
2022-10-31T01:39:23.523Z,24.63
2022-10-31T01:41:50.783Z,32.25
2022-10-31T01:44:18.046Z,23.15
2022-10-31T01:46:45.286Z,27.33
2022-10-31T01:49:12.508Z,25.60
2022-10-31T01:51:39.766Z,32.40
2022-10-31T01:54:06.981Z,21.50
2022-10-31T01:56:34.238Z,26.33
2022-10-31T01:59:01.489Z,27.75
2022-10-31T02:01:28.816Z,28.42
2022-10-31T02:03:56.171Z,32.20
2022-10-31T02:06:23.502Z,32.20
2022-10-31T02:08:50.685Z,31.77
2022-10-31T02:11:17.932Z,30.48
2022-10-31T02:13:45.184Z,22.20
2022-10-31T02:16:12.531Z,30.92
2022-10-31T02:18:39.766Z,25.95
2022-10-31T02:21:07.083Z,37.83
2022-10-31T02:23:35.145Z,22.02
2022-10-31T02:26:06.323Z,35.17
2022-10-31T02:28:35.475Z,24.00
2022-10-31T02:31:02.725Z,25.33
2022-10-31T02:33:30.428Z,30.60
2022-10-31T02:35:57.648Z,29.08
2022-10-31T02:38:24.868Z,44.83
2022-10-31T02:40:52.106Z,34.47
2022-10-31T02:43:27.199Z,38.28
2022-10-31T02:45:54.513Z,34.53
2022-10-31T02:48:21.746Z,29.23
2022-10-31T02:50:49.223Z,34.17
2022-10-31T02:53:16.505Z,17.27
2022-10-31T02:55:43.741Z,38.83
2022-10-31T02:58:11.117Z,21.35
2022-10-31T03:00:38.413Z,28.85
2022-10-31T03:03:05.693Z,30.20
2022-10-31T03:05:33.015Z,36.50
2022-10-31T03:08:00.212Z,49.35
2022-10-31T03:10:27.998Z,31.13
2022-10-31T03:12:55.294Z,36.92
2022-10-31T03:15:22.578Z,38.20
2022-10-31T03:17:49.799Z,35.95
2022-10-31T03:20:17.099Z,38.08
2022-10-31T03:22:44.269Z,32.30
2022-10-31T03:25:11.617Z,30.33
2022-10-31T03:27:38.801Z,39.28
2022-10-31T03:30:06.126Z,44.00
2022-10-31T03:32:41.346Z,27.95
2022-10-31T03:35:08.758Z,40.17
2022-10-31T03:37:35.963Z,41.15
2022-10-31T03:40:03.226Z,43.22
2022-10-31T03:42:32.169Z,31.85
2022-10-31T03:44:59.370Z,38.05
2022-10-31T03:47:28.197Z,30.02
2022-10-31T03:49:55.493Z,39.30
2022-10-31T03:52:22.684Z,44.53
2022-10-31T03:54:50.062Z,32.15
2022-10-31T03:57:17.254Z,30.92
2022-10-31T03:59:44.657Z,26.60
2022-10-31T04:02:12.141Z,38.78
2022-10-31T04:04:39.612Z,31.25
2022-10-31T04:07:06.960Z,27.77
2022-10-31T04:09:35.688Z,25.60
2022-10-31T04:12:02.925Z,37.58
2022-10-31T04:14:38.036Z,38.33
2022-10-31T04:17:05.435Z,27.77
2022-10-31T04:19:37.228Z,35.15
2022-10-31T04:22:04.583Z,34.95
2022-10-31T04:24:32.045Z,45.00
2022-10-31T04:26:59.517Z,32.67
2022-10-31T04:29:27.518Z,28.42
2022-10-31T04:31:54.803Z,36.38
2022-10-31T04:34:22.152Z,23.60
2022-10-31T04:36:50.476Z,35.17
2022-10-31T04:39:22.688Z,26.15
2022-10-31T04:42:16.006Z,44.60
2022-10-31T04:44:43.253Z,45.05
2022-10-31T04:47:10.554Z,36.83
2022-10-31T04:49:37.865Z,39.15
2022-10-31T04:52:06.046Z,40.95
2022-10-31T04:54:33.977Z,41.70
2022-10-31T04:57:19.657Z,28.98
2022-10-31T04:59:47.538Z,21.70
2022-10-31T05:02:14.775Z,29.77
2022-10-31T05:04:50.955Z,45.72
2022-10-31T05:07:19.021Z,24.35
2022-10-31T05:09:46.214Z,34.20
2022-10-31T05:12:14.740Z,23.95
2022-10-31T05:15:10.680Z,38.75
2022-10-31T05:17:56.319Z,41.35
2022-10-31T05:20:42.142Z,44.47
2022-10-31T05:23:35.853Z,36.83
2022-10-31T05:26:03.467Z,27.33
2022-10-31T05:28:30.763Z,27.02
2022-10-31T05:30:58.427Z,34.85
2022-10-31T05:33:25.619Z,35.15
2022-10-31T05:36:11.412Z,22.73
2022-10-31T05:39:04.604Z,33.92
2022-10-31T05:41:36.509Z,29.10
2022-10-31T05:44:15.349Z,30.05
2022-10-31T05:46:54.028Z,39.33
2022-10-31T05:49:33.190Z,29.77
2022-10-31T05:52:26.620Z,26.45
2022-10-31T05:55:04.697Z,49.08
2022-10-31T05:57:32.284Z,47.55
2022-10-31T05:59:59.447Z,25.88
2022-10-31T06:02:27.803Z,26.92
2022-10-31T06:05:15.410Z,32.75
2022-10-31T06:07:42.760Z,32.08
2022-10-31T06:10:10.098Z,21.25
2022-10-31T06:12:38.788Z,32.40
2022-10-31T06:15:28.737Z,24.25
2022-10-31T06:17:56.502Z,28.40
2022-10-31T06:20:26.124Z,36.47
2022-10-31T06:23:13.769Z,27.67
2022-10-31T06:25:44.716Z,29.00
2022-10-31T06:28:13.148Z,20.48
2022-10-31T06:31:06.452Z,25.50
2022-10-31T06:33:33.833Z,40.40
2022-10-31T06:36:02.462Z,30.98
2022-10-31T06:38:29.897Z,25.50
2022-10-31T06:40:58.424Z,42.63
2022-10-31T06:43:29.108Z,38.85
2022-10-31T06:46:18.308Z,23.75
2022-10-31T06:49:08.576Z,22.55
2022-10-31T06:51:43.049Z,18.88
2022-10-31T06:54:10.308Z,24.42
2022-10-31T06:56:37.623Z,27.90
2022-10-31T06:59:05.386Z,34.45
2022-10-31T07:01:51.740Z,24.42
2022-10-31T07:04:19.301Z,27.48
2022-10-31T07:06:51.878Z,14.70
2022-10-31T07:09:20.315Z,29.20
2022-10-31T07:11:48.184Z,18.42
2022-10-31T07:14:16.071Z,21.02
2022-10-31T07:16:43.679Z,12.75
2022-10-31T07:19:14.116Z,21.48
2022-10-31T07:21:41.660Z,26.10
2022-10-31T07:24:10.159Z,26.73
2022-10-31T07:26:56.034Z,17.58
2022-10-31T07:29:23.456Z,18.02
2022-10-31T07:31:51.133Z,23.85
2022-10-31T07:34:25.221Z,44.20
2022-10-31T07:37:24.554Z,25.10
2022-10-31T07:39:53.225Z,12.95
2022-10-31T07:42:20.464Z,18.75
2022-10-31T07:44:47.786Z,13.52
2022-10-31T07:47:33.559Z,18.35
2022-10-31T07:50:19.380Z,10.90
2022-10-31T07:53:05.249Z,22.42
2022-10-31T07:55:52.131Z,18.23
2022-10-31T07:58:20.102Z,22.08
2022-10-31T08:00:47.400Z,20.95
2022-10-31T08:03:18.809Z,23.35
2022-10-31T08:06:04.447Z,21.20
2022-10-31T08:08:50.223Z,15.82
2022-10-31T08:11:18.590Z,26.48
2022-10-31T08:13:45.836Z,19.30
2022-10-31T08:16:15.480Z,19.60
2022-10-31T08:18:56.779Z,30.65
2022-10-31T08:21:24.671Z,29.00
2022-10-31T08:23:52.296Z,40.97
2022-10-31T08:26:22.656Z,36.55
2022-10-31T08:28:52.457Z,11.70
2022-10-31T08:31:21.954Z,27.85
2022-10-31T08:33:49.231Z,35.20
2022-10-31T08:36:34.802Z,40.30
2022-10-31T08:39:13.173Z,34.03
2022-10-31T08:41:40.565Z,41.08
2022-10-31T08:44:11.918Z,38.65
2022-10-31T08:46:39.318Z,31.80
2022-10-31T08:49:07.030Z,32.22
2022-10-31T08:51:34.528Z,28.38
2022-10-31T08:54:02.001Z,29.45
2022-10-31T08:56:47.753Z,33.83
2022-10-31T08:59:29.487Z,28.10
2022-10-31T09:02:15.326Z,33.28
2022-10-31T09:04:42.912Z,21.00
2022-10-31T09:07:25.318Z,39.50
2022-10-31T09:09:54.563Z,40.55
2022-10-31T09:12:21.795Z,35.95
2022-10-31T09:15:14.983Z,29.63
2022-10-31T09:17:49.021Z,19.60
2022-10-31T09:20:26.970Z,21.70
2022-10-31T09:22:54.631Z,32.15
2022-10-31T09:25:21.827Z,28.58
2022-10-31T09:27:56.063Z,20.90
2022-10-31T09:30:23.927Z,30.08
2022-10-31T09:32:51.167Z,39.20
2022-10-31T09:35:20.466Z,19.48
2022-10-31T09:37:50.510Z,16.55
2022-10-31T09:40:17.791Z,22.77
2022-10-31T09:42:46.865Z,26.02
2022-10-31T09:45:21.268Z,22.52
2022-10-31T09:47:48.681Z,25.98
2022-10-31T09:50:41.963Z,24.02
2022-10-31T09:53:32.324Z,30.63
2022-10-31T09:56:00.238Z,26.25
2022-10-31T09:58:27.486Z,26.25
2022-10-31T10:00:55.867Z,31.73
2022-10-31T10:03:23.128Z,18.90
2022-10-31T10:05:51.213Z,27.27
2022-10-31T10:08:27.243Z,22.35
2022-10-31T10:11:09.536Z,24.35
2022-10-31T10:13:54.242Z,28.05
2022-10-31T10:16:21.612Z,20.92
2022-10-31T10:18:48.818Z,22.42
2022-10-31T10:21:16.200Z,20.45
2022-10-31T10:23:43.615Z,19.42
2022-10-31T10:26:13.415Z,20.65
2022-10-31T10:28:40.988Z,23.45
2022-10-31T10:31:08.192Z,14.43
2022-10-31T10:33:35.497Z,19.92
2022-10-31T10:36:02.756Z,22.95
2022-10-31T10:38:30.075Z,26.13
2022-10-31T10:40:57.280Z,13.05
2022-10-31T10:43:24.987Z,18.35
2022-10-31T10:46:11.975Z,16.65
2022-10-31T10:48:39.438Z,18.75
2022-10-31T10:51:16.038Z,11.77
2022-10-31T10:54:06.546Z,22.10
2022-10-31T10:56:37.580Z,12.90
2022-10-31T10:59:04.837Z,12.63
2022-10-31T11:01:32.147Z,19.33
2022-10-31T11:03:59.500Z,12.27
2022-10-31T11:06:27.227Z,23.63
2022-10-31T11:08:54.465Z,17.55
2022-10-31T11:11:21.755Z,15.00
2022-10-31T11:13:48.937Z,12.38
2022-10-31T11:16:16.188Z,13.25
2022-10-31T11:18:43.405Z,16.65
2022-10-31T11:21:10.979Z,7.63
2022-10-31T11:23:38.218Z,14.90
2022-10-31T11:26:05.876Z,14.52
2022-10-31T11:28:36.226Z,12.15
2022-10-31T11:31:03.487Z,16.05
2022-10-31T11:33:30.701Z,16.08
2022-10-31T11:35:58.557Z,19.42
2022-10-31T11:38:26.678Z,11.40
2022-10-31T11:40:54.016Z,8.65
2022-10-31T11:43:21.381Z,10.07
2022-10-31T11:45:48.790Z,7.65
2022-10-31T11:48:16.196Z,8.70
2022-10-31T11:50:45.648Z,10.40
2022-10-31T11:53:12.879Z,10.85
2022-10-31T11:55:40.949Z,8.20
2022-10-31T11:58:08.230Z,9.20
2022-10-31T12:00:35.477Z,4.00
2022-10-31T12:03:03.122Z,6.90
2022-10-31T12:05:33.808Z,10.13
2022-10-31T12:08:04.559Z,10.93
2022-10-31T12:10:32.139Z,4.63
2022-10-31T12:12:59.640Z,10.50
2022-10-31T12:15:27.047Z,8.98
2022-10-31T12:17:54.628Z,6.15
2022-10-31T12:20:21.856Z,11.48
2022-10-31T12:22:49.868Z,8.93
2022-10-31T12:25:17.253Z,16.08
2022-10-31T12:27:44.847Z,8.88
2022-10-31T12:30:15.093Z,13.93
2022-10-31T12:32:42.576Z,6.45
2022-10-31T12:35:09.752Z,8.50
2022-10-31T12:37:36.981Z,10.75
2022-10-31T12:40:04.275Z,12.70
2022-10-31T12:42:31.558Z,8.90
2022-10-31T12:44:58.837Z,5.53
2022-10-31T12:47:27.035Z,13.55
2022-10-31T12:49:54.207Z,5.65
2022-10-31T12:52:21.429Z,5.40
2022-10-31T12:54:48.672Z,12.80
2022-10-31T12:57:15.897Z,9.40
2022-10-31T12:59:43.067Z,8.43
2022-10-31T13:02:10.467Z,8.70
2022-10-31T13:04:37.631Z,8.48
2022-10-31T13:07:04.970Z,11.80
2022-10-31T13:09:32.228Z,9.40
2022-10-31T13:11:59.489Z,10.32
2022-10-31T13:14:26.671Z,6.95
2022-10-31T13:16:53.961Z,4.82
2022-10-31T13:19:21.230Z,4.43
2022-10-31T13:21:48.470Z,16.35
2022-10-31T13:24:15.738Z,8.75
2022-10-31T13:26:43.030Z,6.93
2022-10-31T13:29:10.324Z,14.88
2022-10-31T13:31:37.601Z,13.15
2022-10-31T13:34:04.824Z,13.15
2022-10-31T13:36:33.556Z,9.60
2022-10-31T13:39:00.884Z,8.55
2022-10-31T13:41:28.670Z,14.77
2022-10-31T13:43:56.260Z,6.32
2022-10-31T13:46:23.560Z,6.90
2022-10-31T13:48:50.769Z,8.20
2022-10-31T13:51:17.914Z,11.55
2022-10-31T13:53:45.218Z,5.05
2022-10-31T13:56:12.533Z,7.80
2022-10-31T13:58:39.878Z,10.10
2022-10-31T14:01:07.306Z,9.25
2022-10-31T14:03:57.747Z,9.25
2022-10-31T14:06:21.872Z,7.35
2022-10-31T14:08:49.053Z,8.50
2022-10-31T14:11:16.280Z,6.72
2022-10-31T14:13:43.723Z,6.78
2022-10-31T14:16:10.959Z,10.82
2022-10-31T14:18:38.566Z,4.43
2022-10-31T14:21:05.851Z,6.93
2022-10-31T14:23:36.090Z,5.97
2022-10-31T14:26:03.294Z,11.48
2022-10-31T14:28:30.610Z,6.50
2022-10-31T14:30:57.815Z,11.98
2022-10-31T14:33:25.019Z,7.43
2022-10-31T14:35:52.303Z,7.35
2022-10-31T14:38:19.524Z,8.50
2022-10-31T14:40:46.822Z,6.88
2022-10-31T14:43:14.162Z,10.20
2022-10-31T14:45:41.328Z,7.03
2022-10-31T14:48:09.640Z,9.48
2022-10-31T14:50:36.882Z,7.93
2022-10-31T14:53:04.282Z,7.50
2022-10-31T14:55:31.933Z,9.32
2022-10-31T14:57:59.074Z,10.02
2022-10-31T15:00:26.560Z,7.05
2022-10-31T15:02:53.719Z,6.90
2022-10-31T15:05:20.958Z,7.97
2022-10-31T15:07:48.264Z,9.18
2022-10-31T15:10:15.536Z,7.63
2022-10-31T15:12:42.889Z,13.73
2022-10-31T15:15:10.051Z,8.30
2022-10-31T15:17:37.375Z,9.77
2022-10-31T15:20:04.623Z,8.20
2022-10-31T15:22:31.852Z,10.65
2022-10-31T15:24:59.050Z,14.43
2022-10-31T15:27:26.428Z,14.65
2022-10-31T15:29:53.639Z,47.63
2022-10-31T15:32:21.807Z,13.57
2022-10-31T15:34:49.161Z,16.40
2022-10-31T15:37:16.518Z,9.80
2022-10-31T15:39:43.685Z,18.80
2022-10-31T15:42:10.918Z,7.88
2022-10-31T15:44:38.186Z,8.13
2022-10-31T15:47:05.412Z,6.13
2022-10-31T15:49:32.578Z,8.77
2022-10-31T15:52:03.798Z,8.50
2022-10-31T15:54:31.025Z,11.50
2022-10-31T15:56:58.312Z,7.72
2022-10-31T15:59:25.581Z,7.43
2022-10-31T16:01:54.264Z,9.70
2022-10-31T16:04:24.455Z,5.82
2022-10-31T16:06:51.830Z,8.82
2022-10-31T16:09:19.304Z,9.63
2022-10-31T16:11:46.494Z,9.18
2022-10-31T16:14:13.812Z,7.85
2022-10-31T16:16:41.011Z,8.40
2022-10-31T16:19:08.468Z,9.68
2022-10-31T16:21:35.768Z,7.68
2022-10-31T16:24:06.044Z,6.38
2022-10-31T16:26:33.703Z,13.10
2022-10-31T16:29:05.806Z,15.73
2022-10-31T16:31:33.225Z,9.95
2022-10-31T16:34:00.409Z,19.02
2022-10-31T16:36:34.980Z,6.68
2022-10-31T16:39:03.065Z,11.43
2022-10-31T16:41:30.288Z,6.65
2022-10-31T16:43:57.656Z,13.93
2022-10-31T16:46:24.853Z,11.80
2022-10-31T16:48:52.187Z,9.85
2022-10-31T16:51:19.441Z,13.95
2022-10-31T16:53:47.072Z,11.90
2022-10-31T16:56:14.444Z,7.95
2022-10-31T16:58:41.770Z,10.88
2022-10-31T17:01:09.098Z,13.15
2022-10-31T17:03:36.400Z,16.60
2022-10-31T17:06:03.749Z,13.63
2022-10-31T17:08:31.023Z,12.18
2022-10-31T17:10:58.268Z,13.32
2022-10-31T17:13:25.486Z,10.93
2022-10-31T17:15:52.752Z,19.90
2022-10-31T17:18:25.941Z,20.02
2022-10-31T17:20:58.273Z,17.95
2022-10-31T17:23:25.525Z,13.77
2022-10-31T17:25:52.683Z,13.35
2022-10-31T17:28:20.018Z,13.88
2022-10-31T17:30:47.251Z,20.10
2022-10-31T17:33:15.207Z,17.83
2022-10-31T17:35:42.487Z,14.13
2022-10-31T17:38:09.841Z,25.42
2022-10-31T17:40:37.125Z,17.98
2022-10-31T17:43:04.674Z,17.70
2022-10-31T17:45:32.103Z,18.92
2022-10-31T17:47:59.488Z,15.95
2022-10-31T17:50:27.264Z,24.45
2022-10-31T17:52:54.972Z,21.75
2022-10-31T17:55:22.338Z,21.65
2022-10-31T17:57:49.767Z,32.50
2022-10-31T18:00:17.218Z,23.20
2022-10-31T18:02:44.782Z,24.45
2022-10-31T18:05:12.169Z,32.70
2022-10-31T18:07:39.431Z,28.20
2022-10-31T18:10:06.758Z,32.45
2022-10-31T18:12:34.023Z,32.08
2022-10-31T18:15:01.200Z,28.13
2022-10-31T18:17:28.500Z,39.58
2022-10-31T18:19:55.833Z,42.60
2022-10-31T18:22:23.073Z,38.80
2022-10-31T18:24:50.424Z,33.85
2022-10-31T18:27:17.749Z,34.45
2022-10-31T18:29:45.619Z,37.83
2022-10-31T18:32:12.887Z,39.78
2022-10-31T18:34:40.192Z,35.60
2022-10-31T18:37:07.484Z,40.20
2022-10-31T18:39:34.710Z,44.25
2022-10-31T18:42:02.076Z,43.33
2022-10-31T18:44:30.327Z,40.63
2022-10-31T18:46:57.803Z,43.80
2022-10-31T18:49:26.057Z,42.42
2022-10-31T18:51:53.339Z,41.03
2022-10-31T18:54:20.604Z,48.50
2022-10-31T18:56:48.002Z,46.90
2022-10-31T18:59:15.295Z,52.33
2022-10-31T19:01:42.631Z,55.13
2022-10-31T19:04:10.060Z,49.85
2022-10-31T19:06:37.312Z,52.85
2022-10-31T19:09:04.533Z,41.63
2022-10-31T19:11:31.724Z,35.65
2022-10-31T19:13:59.035Z,46.08
2022-10-31T19:16:26.267Z,42.42
2022-10-31T19:18:55.943Z,40.25
2022-10-31T19:21:23.340Z,49.33
2022-10-31T19:23:50.604Z,40.80
2022-10-31T19:26:17.805Z,40.05
2022-10-31T19:28:45.063Z,44.58
2022-10-31T19:31:12.284Z,43.10
2022-10-31T19:33:39.578Z,45.15
2022-10-31T19:36:10.000Z,39.05
2022-10-31T19:38:37.276Z,48.95
2022-10-31T19:41:04.642Z,36.97
2022-10-31T19:43:31.972Z,27.77
2022-10-31T19:45:59.175Z,40.75
2022-10-31T19:48:26.384Z,36.83
2022-10-31T19:50:58.436Z,45.38
2022-10-31T19:53:25.917Z,38.60
2022-10-31T19:55:53.113Z,41.10
2022-10-31T19:58:20.317Z,37.58
2022-10-31T20:00:47.580Z,48.78
2022-10-31T20:03:18.406Z,33.90
2022-10-31T20:05:50.244Z,34.22
2022-10-31T20:08:17.486Z,35.35
2022-10-31T20:10:44.744Z,33.70
2022-10-31T20:13:12.122Z,34.35
2022-10-31T20:15:39.518Z,38.40
2022-10-31T20:18:06.820Z,35.83
2022-10-31T20:20:34.129Z,36.83
2022-10-31T20:23:01.628Z,44.08
2022-10-31T20:25:29.121Z,33.95
2022-10-31T20:27:56.271Z,28.05
2022-10-31T20:30:23.569Z,38.25
2022-10-31T20:32:50.707Z,33.40
2022-10-31T20:35:17.996Z,23.27
2022-10-31T20:37:45.250Z,33.08
2022-10-31T20:40:12.507Z,32.17
2022-10-31T20:42:40.680Z,23.83
2022-10-31T20:45:07.933Z,22.38
2022-10-31T20:47:35.368Z,29.35
2022-10-31T20:50:04.350Z,22.23
2022-10-31T20:52:31.681Z,19.20
2022-10-31T20:54:58.926Z,20.33
2022-10-31T20:57:26.741Z,31.45
2022-10-31T20:59:53.901Z,23.50
2022-10-31T21:02:21.338Z,25.20
2022-10-31T21:04:48.832Z,15.88
2022-10-31T21:07:16.099Z,22.92
2022-10-31T21:09:43.280Z,18.10
2022-10-31T21:12:10.645Z,18.40
2022-10-31T21:14:38.083Z,18.33
2022-10-31T21:17:05.438Z,17.77
2022-10-31T21:19:33.437Z,24.85
2022-10-31T21:22:00.847Z,26.45
2022-10-31T21:24:28.855Z,31.15
2022-10-31T21:26:56.180Z,28.60
2022-10-31T21:29:23.336Z,26.98
2022-10-31T21:31:50.565Z,20.88
2022-10-31T21:34:17.820Z,26.15
2022-10-31T21:36:45.083Z,28.25
2022-10-31T21:39:12.419Z,16.23
2022-10-31T21:41:39.712Z,20.17
2022-10-31T21:44:06.913Z,15.50
2022-10-31T21:46:34.257Z,31.83
2022-10-31T21:49:01.550Z,22.23
2022-10-31T21:51:29.073Z,20.67
2022-10-31T21:54:15.170Z,21.20
2022-10-31T21:56:42.410Z,18.73
2022-10-31T21:59:09.830Z,18.73
2022-10-31T22:01:37.133Z,27.23
2022-10-31T22:04:04.418Z,15.43
2022-10-31T22:06:31.644Z,19.77
2022-10-31T22:08:59.071Z,21.88
2022-10-31T22:11:27.967Z,17.15
2022-10-31T22:13:55.209Z,19.63
2022-10-31T22:16:22.518Z,15.20
2022-10-31T22:18:49.759Z,13.50
2022-10-31T22:21:17.008Z,17.17
2022-10-31T22:23:44.226Z,13.40
2022-10-31T22:26:14.504Z,7.10
2022-10-31T22:28:41.942Z,12.30
2022-10-31T22:31:09.378Z,14.65
2022-10-31T22:33:36.752Z,20.75
2022-10-31T22:36:04.017Z,16.95
2022-10-31T22:38:31.380Z,26.52
2022-10-31T22:40:58.919Z,16.42
2022-10-31T22:43:26.247Z,19.83
2022-10-31T22:45:53.445Z,20.02
2022-10-31T22:48:20.752Z,14.55
2022-10-31T22:50:48.020Z,22.73
2022-10-31T22:53:15.940Z,17.35
2022-10-31T22:55:43.164Z,18.17
2022-10-31T22:58:10.319Z,22.88
2022-10-31T23:00:37.748Z,20.92
2022-10-31T23:03:05.021Z,14.00
2022-10-31T23:05:32.252Z,20.20
2022-10-31T23:07:59.893Z,17.63
2022-10-31T23:10:33.195Z,16.52
2022-10-31T23:13:19.341Z,14.18
2022-10-31T23:15:46.604Z,8.30
2022-10-31T23:18:19.048Z,5.60
2022-10-31T23:21:01.196Z,6.78
2022-10-31T23:23:28.407Z,8.32
2022-10-31T23:26:14.397Z,14.40
2022-10-31T23:28:41.664Z,11.25
2022-10-31T23:31:08.852Z,14.50
2022-10-31T23:33:36.151Z,13.10
2022-10-31T23:36:03.475Z,26.50
2022-10-31T23:38:30.747Z,32.88
2022-10-31T23:40:57.959Z,26.80
2022-10-31T23:43:25.242Z,32.47
2022-10-31T23:45:52.433Z,32.28
2022-10-31T23:48:19.773Z,38.13
2022-10-31T23:50:46.927Z,40.92
2022-10-31T23:53:14.169Z,37.40
2022-10-31T23:55:41.372Z,31.42
2022-10-31T23:58:08.604Z,33.97
